createdAt,value
2023-05-10T00:02:05.370Z,12.57
2023-05-10T00:04:33.452Z,12.59
2023-05-10T00:07:01.358Z,12.49
2023-05-10T00:09:29.200Z,12.44
2023-05-10T00:11:59.255Z,12.46
2023-05-10T00:14:27.092Z,12.45
2023-05-10T00:16:55.038Z,12.44
2023-05-10T00:19:24.308Z,12.41
2023-05-10T00:21:52.249Z,12.29
2023-05-10T00:24:20.128Z,12.27
2023-05-10T00:26:47.992Z,12.26
2023-05-10T00:29:15.955Z,12.15
2023-05-10T00:31:43.907Z,12.12
2023-05-10T00:34:11.926Z,12.09
2023-05-10T00:36:41.373Z,12.07
2023-05-10T00:39:09.364Z,11.95
2023-05-10T00:41:37.184Z,11.93
2023-05-10T00:44:06.841Z,11.83
2023-05-10T00:46:34.921Z,11.69
2023-05-10T00:49:02.930Z,11.61
2023-05-10T00:51:32.006Z,11.64
2023-05-10T00:54:02.244Z,11.60
2023-05-10T00:56:30.867Z,11.44
2023-05-10T00:58:58.824Z,11.52
2023-05-10T01:01:26.732Z,11.45
2023-05-10T01:03:54.885Z,11.36
2023-05-10T01:06:22.904Z,11.30
2023-05-10T01:08:50.817Z,11.31
2023-05-10T01:11:20.623Z,11.20
2023-05-10T01:13:53.085Z,11.27
2023-05-10T01:16:21.032Z,11.14
2023-05-10T01:18:50.661Z,11.20
2023-05-10T01:21:23.240Z,11.15
2023-05-10T01:24:11.773Z,11.14
2023-05-10T01:27:09.380Z,11.23
2023-05-10T01:30:14.819Z,11.12
2023-05-10T01:32:48.745Z,11.12
2023-05-10T01:35:19.871Z,11.08
2023-05-10T01:37:52.866Z,11.01
2023-05-10T01:40:25.245Z,10.86
2023-05-10T01:42:56.451Z,10.87
2023-05-10T01:45:29.599Z,10.86
2023-05-10T01:48:07.578Z,10.76
2023-05-10T01:50:37.861Z,10.75
2023-05-10T01:53:09.281Z,10.73
2023-05-10T01:55:41.916Z,10.72
2023-05-10T01:58:12.468Z,10.77
2023-05-10T02:00:44.859Z,10.75
2023-05-10T02:03:15.000Z,10.66
2023-05-10T02:05:43.385Z,10.73
2023-05-10T02:08:11.856Z,10.70
2023-05-10T02:10:41.582Z,10.64
2023-05-10T02:13:10.406Z,10.64
2023-05-10T02:15:38.678Z,10.51
2023-05-10T02:18:07.639Z,10.56
2023-05-10T02:20:37.255Z,10.56
2023-05-10T02:23:05.611Z,10.53
2023-05-10T02:25:34.004Z,10.46
2023-05-10T02:28:04.279Z,10.53
2023-05-10T02:30:33.579Z,10.50
2023-05-10T02:33:01.946Z,10.48
2023-05-10T02:35:30.415Z,10.50
2023-05-10T02:38:01.052Z,10.45
2023-05-10T02:40:30.745Z,10.49
2023-05-10T02:42:59.715Z,10.43
2023-05-10T02:45:30.426Z,10.40
2023-05-10T02:47:58.716Z,10.32
2023-05-10T02:50:29.632Z,10.32
2023-05-10T02:53:04.082Z,10.29
2023-05-10T02:55:35.160Z,10.20
2023-05-10T02:58:22.069Z,10.18
2023-05-10T03:00:49.873Z,10.19
2023-05-10T03:03:17.702Z,10.22
2023-05-10T03:05:45.577Z,10.14
2023-05-10T03:08:14.936Z,10.09
2023-05-10T03:10:51.416Z,10.12
2023-05-10T03:13:28.490Z,10.07
2023-05-10T03:16:00.438Z,10.06
2023-05-10T03:18:33.065Z,9.95
2023-05-10T03:21:06.136Z,9.98
2023-05-10T03:23:39.407Z,10.03
2023-05-10T03:26:07.321Z,9.98
2023-05-10T03:28:36.156Z,10.00
2023-05-10T03:31:06.985Z,9.98
2023-05-10T03:33:35.506Z,9.98
2023-05-10T03:36:03.383Z,9.94
2023-05-10T03:38:31.411Z,9.89
2023-05-10T03:41:00.681Z,9.94
2023-05-10T03:43:28.835Z,9.90
2023-05-10T03:45:56.709Z,9.87
2023-05-10T03:48:24.545Z,9.94
2023-05-10T03:50:52.536Z,9.97
2023-05-10T03:53:20.320Z,9.96
2023-05-10T03:55:48.150Z,9.97
2023-05-10T03:58:17.501Z,9.95
2023-05-10T04:00:46.394Z,9.94
2023-05-10T04:03:15.683Z,10.06
2023-05-10T04:05:43.645Z,9.96
2023-05-10T04:08:11.526Z,10.03
2023-05-10T04:10:39.512Z,10.07
2023-05-10T04:13:07.432Z,10.13
2023-05-10T04:15:36.943Z,10.12
2023-05-10T04:18:06.501Z,10.25
2023-05-10T04:20:35.953Z,10.30
2023-05-10T04:23:04.000Z,10.33
2023-05-10T04:25:31.830Z,10.25
2023-05-10T04:27:59.738Z,10.29
2023-05-10T04:30:29.459Z,10.32
2023-05-10T04:32:59.185Z,10.49
2023-05-10T04:35:27.059Z,10.50
2023-05-10T04:37:54.967Z,10.55
2023-05-10T04:40:22.768Z,10.48
2023-05-10T04:42:50.548Z,10.58
2023-05-10T04:45:18.596Z,10.65
2023-05-10T04:47:46.457Z,10.70
2023-05-10T04:50:15.867Z,10.77
2023-05-10T04:52:43.859Z,10.82
2023-05-10T04:55:11.678Z,10.93
2023-05-10T04:57:39.694Z,10.96
2023-05-10T05:00:09.285Z,11.00
2023-05-10T05:02:37.173Z,11.10
2023-05-10T05:05:05.942Z,11.20
2023-05-10T05:07:35.141Z,11.34
2023-05-10T05:10:02.997Z,11.45
2023-05-10T05:12:31.356Z,11.43
2023-05-10T05:14:59.174Z,11.51
2023-05-10T05:17:27.153Z,11.54
2023-05-10T05:19:57.665Z,11.66
2023-05-10T05:22:28.462Z,11.65
2023-05-10T05:24:59.025Z,11.77
2023-05-10T05:27:28.724Z,11.82
2023-05-10T05:29:56.762Z,11.88
2023-05-10T05:32:24.873Z,11.99
2023-05-10T05:34:53.010Z,12.06
2023-05-10T05:37:22.200Z,12.02
2023-05-10T05:39:50.624Z,12.21
2023-05-10T05:42:19.985Z,12.26
2023-05-10T05:44:47.906Z,12.38
2023-05-10T05:47:15.698Z,12.48
2023-05-10T05:49:43.587Z,12.51
2023-05-10T05:52:11.668Z,12.56
2023-05-10T05:54:39.469Z,12.70
2023-05-10T05:57:07.448Z,12.77
2023-05-10T05:59:38.015Z,12.84
2023-05-10T06:02:05.913Z,13.00
2023-05-10T06:04:33.955Z,13.14
2023-05-10T06:07:01.875Z,13.28
2023-05-10T06:09:29.772Z,13.35
2023-05-10T06:11:58.138Z,13.35
2023-05-10T06:14:26.015Z,13.47
2023-05-10T06:16:55.290Z,13.66
2023-05-10T06:19:23.217Z,13.79
2023-05-10T06:21:53.164Z,13.80
2023-05-10T06:24:22.168Z,13.95
2023-05-10T06:26:50.939Z,14.00
2023-05-10T06:29:18.821Z,13.98
2023-05-10T06:31:46.739Z,13.94
2023-05-10T06:34:16.315Z,14.10
2023-05-10T06:36:44.756Z,14.08
2023-05-10T06:39:13.218Z,14.09
2023-05-10T06:41:41.448Z,14.22
2023-05-10T06:44:09.423Z,14.26
2023-05-10T06:46:37.447Z,14.38
2023-05-10T06:49:05.466Z,14.41
2023-05-10T06:51:34.648Z,14.50
2023-05-10T06:54:02.815Z,14.60
2023-05-10T06:56:30.739Z,14.78
2023-05-10T06:58:58.690Z,15.38
2023-05-10T07:01:26.927Z,15.26
2023-05-10T07:03:54.864Z,15.70
2023-05-10T07:06:33.043Z,15.90
2023-05-10T07:09:03.235Z,16.46
2023-05-10T07:11:31.045Z,16.54
2023-05-10T07:13:58.885Z,16.65
2023-05-10T07:16:28.744Z,16.55
2023-05-10T07:18:56.839Z,16.48
2023-05-10T07:21:44.281Z,16.83
2023-05-10T07:24:13.533Z,16.78
2023-05-10T07:26:41.414Z,16.92
2023-05-10T07:29:09.333Z,16.90
2023-05-10T07:31:37.402Z,16.54
2023-05-10T07:34:05.446Z,16.80
2023-05-10T07:36:33.385Z,17.15
2023-05-10T07:39:02.455Z,17.23
2023-05-10T07:41:31.652Z,17.75
2023-05-10T07:43:59.511Z,18.54
2023-05-10T07:46:27.472Z,19.49
2023-05-10T07:48:55.345Z,20.38
2023-05-10T07:51:23.220Z,20.40
2023-05-10T07:53:51.129Z,20.20
2023-05-10T07:56:23.808Z,21.05
2023-05-10T07:58:53.220Z,20.78
2023-05-10T08:01:21.333Z,21.54
2023-05-10T08:03:49.674Z,21.36
2023-05-10T08:06:18.958Z,21.82
2023-05-10T08:08:50.328Z,22.68
2023-05-10T08:11:18.594Z,22.05
2023-05-10T08:13:58.562Z,22.01
2023-05-10T08:16:27.865Z,21.96
2023-05-10T08:18:58.545Z,21.54
2023-05-10T08:21:26.974Z,21.71
2023-05-10T08:23:55.120Z,22.32
2023-05-10T08:26:23.052Z,22.10
2023-05-10T08:28:50.895Z,22.44
2023-05-10T08:31:18.993Z,22.28
2023-05-10T08:33:48.259Z,22.66
2023-05-10T08:36:20.580Z,22.90
2023-05-10T08:38:50.217Z,23.07
2023-05-10T08:41:18.362Z,23.49
2023-05-10T08:43:47.235Z,24.08
2023-05-10T08:46:17.772Z,23.82
2023-05-10T08:48:48.118Z,22.11
2023-05-10T08:51:20.107Z,22.03
2023-05-10T08:53:48.254Z,22.45
2023-05-10T08:56:18.728Z,23.47
2023-05-10T08:58:46.640Z,23.25
2023-05-10T09:01:15.761Z,22.70
2023-05-10T09:03:43.862Z,22.18
2023-05-10T09:06:14.029Z,22.06
2023-05-10T09:08:43.765Z,23.67
2023-05-10T09:11:12.023Z,23.15
2023-05-10T09:13:39.963Z,23.24
2023-05-10T09:16:20.581Z,22.92
2023-05-10T09:18:50.311Z,23.86
2023-05-10T09:21:21.383Z,24.37
2023-05-10T09:23:51.011Z,25.03
2023-05-10T09:26:19.207Z,25.01
2023-05-10T09:28:54.609Z,25.47
2023-05-10T09:31:22.569Z,26.24
2023-05-10T09:33:51.641Z,24.94
2023-05-10T09:36:20.870Z,25.44
2023-05-10T09:38:49.801Z,25.33
2023-05-10T09:41:19.416Z,24.54
2023-05-10T09:43:47.265Z,25.07
2023-05-10T09:46:15.335Z,24.97
2023-05-10T09:48:44.609Z,25.47
2023-05-10T09:51:12.532Z,25.60
2023-05-10T09:53:41.695Z,24.96
2023-05-10T09:56:09.565Z,24.27
2023-05-10T09:58:38.981Z,24.38
2023-05-10T10:01:06.808Z,23.95
2023-05-10T10:03:34.694Z,25.28
2023-05-10T10:06:02.700Z,25.94
2023-05-10T10:08:30.773Z,24.99
2023-05-10T10:11:00.130Z,24.84
2023-05-10T10:13:27.974Z,24.83
2023-05-10T10:15:56.461Z,25.34
2023-05-10T10:18:28.337Z,26.30
2023-05-10T10:20:56.916Z,25.24
2023-05-10T10:23:24.863Z,25.07
2023-05-10T10:25:52.915Z,25.84
2023-05-10T10:28:28.991Z,24.50
2023-05-10T10:30:57.484Z,24.15
2023-05-10T10:33:42.775Z,24.02
2023-05-10T10:36:10.696Z,23.89
2023-05-10T10:38:40.536Z,24.56
2023-05-10T10:41:12.963Z,24.53
2023-05-10T10:43:42.216Z,25.00
2023-05-10T10:46:15.103Z,23.85
2023-05-10T10:48:43.687Z,23.55
2023-05-10T10:51:13.010Z,24.22
2023-05-10T10:53:43.255Z,25.41
2023-05-10T10:56:14.393Z,25.36
2023-05-10T10:58:44.429Z,24.19
2023-05-10T11:01:16.735Z,24.50
2023-05-10T11:04:19.625Z,23.79
2023-05-10T11:06:47.678Z,23.93
2023-05-10T11:09:15.942Z,23.72
2023-05-10T11:11:55.835Z,24.52
2023-05-10T11:14:25.121Z,24.58
2023-05-10T11:16:53.236Z,24.53
2023-05-10T11:19:21.306Z,24.72
2023-05-10T11:21:50.582Z,24.55
2023-05-10T11:24:19.618Z,24.05
2023-05-10T11:26:48.075Z,24.69
2023-05-10T11:29:15.916Z,24.38
2023-05-10T11:31:49.254Z,23.79
2023-05-10T11:34:25.860Z,23.33
2023-05-10T11:36:55.050Z,23.62
2023-05-10T11:39:23.171Z,24.09
2023-05-10T11:41:51.537Z,24.27
2023-05-10T11:44:19.459Z,24.71
2023-05-10T11:46:48.842Z,23.60
2023-05-10T11:49:17.000Z,23.73
2023-05-10T11:51:44.992Z,23.85
2023-05-10T11:54:13.403Z,24.47
2023-05-10T11:56:42.235Z,24.40
2023-05-10T11:59:10.169Z,25.06
2023-05-10T12:01:38.255Z,24.84
2023-05-10T12:04:08.073Z,24.63
2023-05-10T12:06:39.745Z,24.50
2023-05-10T12:09:08.280Z,24.41
2023-05-10T12:11:41.195Z,25.02
2023-05-10T12:14:11.481Z,25.95
2023-05-10T12:16:39.421Z,25.81
2023-05-10T12:19:08.744Z,25.14
2023-05-10T12:21:36.666Z,24.59
2023-05-10T12:24:05.856Z,24.58
2023-05-10T12:26:34.222Z,25.00
2023-05-10T12:29:16.586Z,25.37
2023-05-10T12:31:57.837Z,25.46
2023-05-10T12:34:33.664Z,25.81
2023-05-10T12:37:01.925Z,26.09
2023-05-10T12:39:40.761Z,26.61
2023-05-10T12:42:08.662Z,26.98
2023-05-10T12:44:36.422Z,27.70
2023-05-10T12:47:04.205Z,27.14
2023-05-10T12:49:33.568Z,26.38
2023-05-10T12:52:01.365Z,26.38
2023-05-10T12:54:29.530Z,25.50
2023-05-10T12:56:57.344Z,25.43
2023-05-10T12:59:25.324Z,25.76
2023-05-10T13:01:53.208Z,26.31
2023-05-10T13:04:21.148Z,26.38
2023-05-10T13:06:50.297Z,26.66
2023-05-10T13:09:18.182Z,27.51
2023-05-10T13:11:46.477Z,27.07
2023-05-10T13:14:14.355Z,27.63
2023-05-10T13:16:42.245Z,28.03
2023-05-10T13:19:10.251Z,28.00
2023-05-10T13:21:38.199Z,27.93
2023-05-10T13:24:07.444Z,28.16
2023-05-10T13:26:35.452Z,27.02
2023-05-10T13:29:03.323Z,26.98
2023-05-10T13:31:31.214Z,26.58
2023-05-10T13:33:59.098Z,26.97
2023-05-10T13:36:27.287Z,26.64
2023-05-10T13:38:55.123Z,25.39
2023-05-10T13:41:24.272Z,25.85
2023-05-10T13:43:52.124Z,25.46
2023-05-10T13:46:20.363Z,26.25
2023-05-10T13:48:48.236Z,26.41
2023-05-10T13:51:16.123Z,26.58
2023-05-10T13:53:43.963Z,27.05
2023-05-10T13:56:11.902Z,27.40
2023-05-10T13:58:41.187Z,28.06
2023-05-10T14:01:08.998Z,27.99
2023-05-10T14:03:36.857Z,27.46
2023-05-10T14:06:05.101Z,27.54
2023-05-10T14:08:32.979Z,27.15
2023-05-10T14:11:00.830Z,26.76
2023-05-10T14:13:28.682Z,25.74
2023-05-10T14:15:57.899Z,26.29
2023-05-10T14:18:25.906Z,26.82
2023-05-10T14:20:53.788Z,26.89
2023-05-10T14:23:24.958Z,27.87
2023-05-10T14:25:52.971Z,27.43
2023-05-10T14:28:21.710Z,27.03
2023-05-10T14:30:49.672Z,26.17
2023-05-10T14:33:19.360Z,26.69
2023-05-10T14:35:47.528Z,26.98
2023-05-10T14:38:15.503Z,27.20
2023-05-10T14:40:43.682Z,26.31
2023-05-10T14:43:11.535Z,26.02
2023-05-10T14:45:39.466Z,26.65
2023-05-10T14:48:07.705Z,27.62
2023-05-10T14:50:37.632Z,28.15
2023-05-10T14:53:05.812Z,29.03
2023-05-10T14:55:33.973Z,28.28
2023-05-10T14:58:01.903Z,27.70
2023-05-10T15:00:30.840Z,28.07
2023-05-10T15:02:59.533Z,28.76
2023-05-10T15:05:27.932Z,28.32
2023-05-10T15:07:57.563Z,28.79
2023-05-10T15:10:25.471Z,28.92
2023-05-10T15:12:53.436Z,28.04
2023-05-10T15:15:21.401Z,27.00
2023-05-10T15:17:49.797Z,26.70
2023-05-10T15:20:17.926Z,25.68
2023-05-10T15:22:45.729Z,26.16
2023-05-10T15:25:15.260Z,25.94
2023-05-10T15:27:44.439Z,26.12
2023-05-10T15:30:13.132Z,25.55
2023-05-10T15:32:41.438Z,25.26
2023-05-10T15:35:10.301Z,25.19
2023-05-10T15:37:38.232Z,25.05
2023-05-10T15:40:07.406Z,24.52
2023-05-10T15:42:36.604Z,24.30
2023-05-10T15:45:05.396Z,24.12
2023-05-10T15:47:33.829Z,24.12
2023-05-10T15:50:02.006Z,23.96
2023-05-10T15:52:29.825Z,23.72
2023-05-10T15:54:57.678Z,24.20
2023-05-10T15:57:25.626Z,25.06
2023-05-10T15:59:54.797Z,25.31
2023-05-10T16:02:23.528Z,25.15
2023-05-10T16:04:51.576Z,25.41
2023-05-10T16:07:19.414Z,25.09
2023-05-10T16:09:49.278Z,25.10
2023-05-10T16:12:17.128Z,25.06
2023-05-10T16:14:44.973Z,25.06
2023-05-10T16:17:15.108Z,24.90
2023-05-10T16:19:43.058Z,24.70
2023-05-10T16:22:10.921Z,24.19
2023-05-10T16:24:38.843Z,24.12
2023-05-10T16:27:06.959Z,23.65
2023-05-10T16:29:34.746Z,23.45
2023-05-10T16:32:02.605Z,23.22
2023-05-10T16:34:31.879Z,23.14
2023-05-10T16:36:59.726Z,23.21
2023-05-10T16:39:27.569Z,23.67
2023-05-10T16:41:55.396Z,23.81
2023-05-10T16:44:25.704Z,23.76
2023-05-10T16:46:54.932Z,24.58
2023-05-10T16:49:25.249Z,24.33
2023-05-10T16:51:55.456Z,23.91
2023-05-10T16:54:23.516Z,23.64
2023-05-10T16:56:51.447Z,23.07
2023-05-10T16:59:19.320Z,22.85
2023-05-10T17:01:47.246Z,22.82
2023-05-10T17:04:15.310Z,22.63
2023-05-10T17:06:43.466Z,22.31
2023-05-10T17:09:13.130Z,22.10
2023-05-10T17:11:41.859Z,21.80
2023-05-10T17:14:10.069Z,21.50
2023-05-10T17:16:38.100Z,21.57
2023-05-10T17:19:06.044Z,21.43
2023-05-10T17:21:34.006Z,21.23
2023-05-10T17:24:01.809Z,20.98
2023-05-10T17:26:32.188Z,20.93
2023-05-10T17:29:00.044Z,20.85
2023-05-10T17:31:28.193Z,20.78
2023-05-10T17:33:56.196Z,20.75
2023-05-10T17:36:24.172Z,20.71
2023-05-10T17:38:55.261Z,20.77
2023-05-10T17:41:23.334Z,20.77
2023-05-10T17:43:53.183Z,20.57
2023-05-10T17:46:21.106Z,20.61
2023-05-10T17:48:48.961Z,20.58
2023-05-10T17:51:16.925Z,20.31
2023-05-10T17:53:45.283Z,20.20
2023-05-10T17:56:13.262Z,20.11
2023-05-10T17:58:41.724Z,20.05
2023-05-10T18:01:11.079Z,19.87
2023-05-10T18:03:39.237Z,19.83
2023-05-10T18:06:07.400Z,19.79
2023-05-10T18:08:35.437Z,19.66
2023-05-10T18:11:03.396Z,19.64
2023-05-10T18:13:31.270Z,19.47
2023-05-10T18:15:59.547Z,19.48
2023-05-10T18:18:28.872Z,19.37
2023-05-10T18:20:58.230Z,19.35
2023-05-10T18:23:26.286Z,19.29
2023-05-10T18:25:54.215Z,19.30
2023-05-10T18:28:22.140Z,19.27
2023-05-10T18:30:50.098Z,19.22
2023-05-10T18:33:17.957Z,19.19
2023-05-10T18:35:47.334Z,19.11
2023-05-10T18:38:15.243Z,19.10
2023-05-10T18:40:43.318Z,19.10
2023-05-10T18:43:11.356Z,19.10
2023-05-10T18:45:39.927Z,19.09
2023-05-10T18:48:08.336Z,18.93
2023-05-10T18:50:36.236Z,18.89
2023-05-10T18:53:06.494Z,18.76
2023-05-10T18:55:34.546Z,18.71
2023-05-10T18:58:02.426Z,18.64
2023-05-10T19:00:30.230Z,18.54
2023-05-10T19:02:58.122Z,18.57
2023-05-10T19:05:29.821Z,18.58
2023-05-10T19:07:57.599Z,18.63
2023-05-10T19:10:26.843Z,18.62
2023-05-10T19:12:54.693Z,18.62
2023-05-10T19:15:22.705Z,18.58
2023-05-10T19:17:51.626Z,18.55
2023-05-10T19:20:20.578Z,18.51
2023-05-10T19:25:28.889Z,18.38
2023-05-10T19:27:58.410Z,18.37
2023-05-10T19:30:26.557Z,18.38
2023-05-10T19:32:54.564Z,18.37
2023-05-10T19:35:22.449Z,18.33
2023-05-10T19:37:50.339Z,18.31
2023-05-10T19:40:18.446Z,18.30
2023-05-10T19:42:47.575Z,18.24
2023-05-10T19:45:17.520Z,18.17
2023-05-10T19:47:45.652Z,18.14
2023-05-10T19:50:13.848Z,18.14
2023-05-10T19:52:41.801Z,18.14
2023-05-10T19:55:10.487Z,18.07
2023-05-10T19:57:38.691Z,17.98
2023-05-10T20:00:08.002Z,17.96
2023-05-10T20:02:40.463Z,17.94
2023-05-10T20:05:09.186Z,17.93
2023-05-10T20:07:37.334Z,17.86
2023-05-10T20:10:05.646Z,17.82
2023-05-10T20:12:33.518Z,17.80
2023-05-10T20:15:01.347Z,17.80
2023-05-10T20:17:29.228Z,17.75
2023-05-10T20:19:58.428Z,17.70
2023-05-10T20:22:26.694Z,17.66
2023-05-10T20:24:56.246Z,17.59
2023-05-10T20:27:24.972Z,17.55
2023-05-10T20:29:53.130Z,17.53
2023-05-10T20:32:21.046Z,17.48
2023-05-10T20:34:49.668Z,17.45
2023-05-10T20:37:18.888Z,17.43
2023-05-10T20:39:49.063Z,17.37
2023-05-10T20:42:19.190Z,17.30
2023-05-10T20:44:47.060Z,17.18
2023-05-10T20:47:15.552Z,17.15
2023-05-10T20:49:43.982Z,17.14
2023-05-10T20:52:11.900Z,17.20
2023-05-10T20:54:41.180Z,17.21
2023-05-10T20:57:09.213Z,17.22
2023-05-10T20:59:37.040Z,17.13
2023-05-10T21:02:05.048Z,17.08
2023-05-10T21:04:32.939Z,17.00
2023-05-10T21:07:00.852Z,16.98
2023-05-10T21:09:28.801Z,17.01
2023-05-10T21:11:58.914Z,17.04
2023-05-10T21:14:26.792Z,17.05
2023-05-10T21:16:54.676Z,17.01
2023-05-10T21:19:22.571Z,16.94
2023-05-10T21:21:50.431Z,16.94
2023-05-10T21:24:18.430Z,16.95
2023-05-10T21:26:46.734Z,16.85
2023-05-10T21:29:15.963Z,16.82
2023-05-10T21:31:43.923Z,16.81
2023-05-10T21:34:13.842Z,16.84
2023-05-10T21:36:41.698Z,16.76
2023-05-10T21:39:09.665Z,16.67
2023-05-10T21:41:37.637Z,16.63
2023-05-10T21:44:06.051Z,16.63
2023-05-10T21:46:35.796Z,16.55
2023-05-10T21:49:04.353Z,16.55
2023-05-10T21:51:33.265Z,16.48
2023-05-10T21:54:01.995Z,16.50
2023-05-10T21:56:30.857Z,16.50
2023-05-10T21:58:59.962Z,16.44
2023-05-10T22:01:28.858Z,16.43
2023-05-10T22:03:58.262Z,16.43
2023-05-10T22:06:26.148Z,16.41
2023-05-10T22:08:54.280Z,16.36
2023-05-10T22:11:23.125Z,16.35
2023-05-10T22:13:51.089Z,16.30
2023-05-10T22:16:18.957Z,16.27
2023-05-10T22:18:47.157Z,16.27
2023-05-10T22:21:16.454Z,16.29
2023-05-10T22:23:44.431Z,16.24
2023-05-10T22:26:12.408Z,16.21
2023-05-10T22:28:40.266Z,16.22
2023-05-10T22:31:10.409Z,16.17
2023-05-10T22:33:38.428Z,16.15
2023-05-10T22:36:07.056Z,16.09
2023-05-10T22:38:36.377Z,16.09
2023-05-10T22:41:04.228Z,16.04
2023-05-10T22:43:32.016Z,15.99
2023-05-10T22:45:59.860Z,15.98
2023-05-10T22:48:29.417Z,15.91
2023-05-10T22:50:57.381Z,15.90
2023-05-10T22:53:25.771Z,15.90
2023-05-10T22:55:55.112Z,15.90
2023-05-10T22:58:23.061Z,15.86
2023-05-10T23:00:51.116Z,15.86
2023-05-10T23:03:19.060Z,15.77
2023-05-10T23:05:48.077Z,15.74
2023-05-10T23:08:15.935Z,15.73
2023-05-10T23:10:43.833Z,15.68
2023-05-10T23:13:13.047Z,15.63
2023-05-10T23:15:59.205Z,15.64
2023-05-10T23:18:27.135Z,15.61
2023-05-10T23:20:55.098Z,15.54
2023-05-10T23:23:23.071Z,15.54
2023-05-10T23:25:51.336Z,15.54
2023-05-10T23:28:20.485Z,15.50
2023-05-10T23:30:48.375Z,15.50
2023-05-10T23:33:16.232Z,15.43
2023-05-10T23:35:44.268Z,15.41
2023-05-10T23:38:12.231Z,15.41
2023-05-10T23:40:40.090Z,15.42
2023-05-10T23:43:08.048Z,15.41
2023-05-10T23:45:37.266Z,15.36
2023-05-10T23:48:05.517Z,15.34
2023-05-10T23:50:33.371Z,15.33
2023-05-10T23:53:01.882Z,15.32
2023-05-10T23:55:29.743Z,15.30
2023-05-10T23:57:57.684Z,15.34
